KTSP/TSP METAR and TAF weather

Enter ICAO airport designator
Station Type Date Time Source
KTSP METAR 2019/10/23 02:15 UTC NOAA

KTSP 230215Z AUTO 28005KT 10SM CLR 15/03 A3021 RMK AO2


Station Type Date Time Source
KTSP Decoded METAR 2019/10/23 02:15 UTC NOAA

Station name not available
Oct 22, 2019 - 10:15 PM EDT / 2019.10.23 0215 UTC
Wind: from the W (280 degrees) at 6 MPH (5 KT):0
Visibility: 10 mile(s):0
Sky conditions: clear
Temperature: 59 F (15 C)
Dew Point: 37 F (3 C)
Relative Humidity: 44%
Pressure (altimeter): 30.21 in. Hg (1023 hPa)
ob: KTSP 230215Z AUTO 28005KT 10SM CLR 15/03 A3021 RMK AO2
cycle: 2

Station Type Date Time Source
KTSP TAF UTC NOAA

Error!

Example: see airport list